Have a Safe July 4th! 

Flight Track Log - Related Links

Times and Time Zones

All times are in EDT time to prevent confusion due to time zone crossing. See the USC110 flight status page for this flight to view local times or setup timezone preferences in your user account.

Time Position Orientation Groundspeed Altitude Reporting Facility
EDT Latitude Longitude Course Direction KTS MPH feet Rate Location/Type
Sun 04:18:07 PM 33.8167 -84.5333 40° Northeast 150 173 2,800  Level Atlanta TRACON
Sun 04:19:07 PM 33.8333 -84.4833 68° East 154 177 3,400 650 Climbing Atlanta TRACON
Sun 04:20:07 PM 33.8333 -84.4333 90° East 155 178 4,100 626 Climbing Atlanta TRACON
Sun 04:21:02 PM 33.8500 -84.4000 59° Northeast 155 178 4,600 470 Climbing Atlanta TRACON
Sun 04:22:02 PM 33.8500 -84.3500 90° East 153 176 5,000 151 Climbing Atlanta TRACON
Sun 04:23:01 PM 33.8667 -84.2833 73° East 169 194 4,900 -53 Descending Atlanta TRACON
Sun 04:23:55 PM 33.8833 -84.2333 68° East 179 206 4,900 50 Level Atlanta TRACON
Sun 04:25:01 PM 33.8833 -84.1833 90° East 179 206 5,000 50 Climbing Atlanta TRACON
Sun 04:25:56 PM 33.9000 -84.1167 73° East 180 207 5,000  Level Atlanta TRACON
Sun 04:26:56 PM 33.9000 -84.0667 90° East 181 208 5,000 48 Level Atlanta TRACON
Sun 04:28:02 PM 33.9000 -84.0000 90° East 180 207 5,100 524 Climbing Atlanta TRACON
Sun 04:29:02 PM 33.9167 -83.9500 68° East 158 182 6,100 947 Climbing Atlanta TRACON
Sun 04:29:56 PM 33.9167 -83.9000 90° East 151 174 6,900 474 Climbing Atlanta TRACON
Sun 04:30:56 PM 33.9167 -83.8500 90° East 182 209 7,000 50 Climbing Atlanta TRACON
Sun 04:31:56 PM 33.9333 -83.7833 73° East 182 209 7,000  Level Atlanta TRACON
Sun 04:32:56 PM 33.9500 -83.7167 73° East 186 214 7,000  Level Atlanta TRACON
Sun 04:33:56 PM 33.9500 -83.6667 90° East 187 215 7,000  Level Atlanta TRACON
Sun 04:35:02 PM 33.9667 -83.6000 73° East 185 213 7,000  Level Atlanta TRACON
Sun 04:36:03 PM 33.9833 -83.5333 73° East 182 209 7,000  Level Atlanta TRACON
Sun 04:36:57 PM 34.0000 -83.4833 68° East 181 208 7,000  Level Atlanta TRACON
Sun 04:38:03 PM 34.0000 -83.4167 90° East 176 203 7,000  Level Atlanta TRACON
Sun 04:39:03 PM 34.0167 -83.3667 68° East 180 207 7,000  Level Atlanta TRACON
Sun 04:40:03 PM 34.0333 -83.3000 73° East 180 207 7,000  Level Atlanta TRACON
Sun 04:41:03 PM 34.0333 -83.2500 90° East 181 208 7,000  Level Atlanta TRACON
Sun 04:42:08 PM 34.0500 -83.1889 72° East 184 212 7,000  Level Atlanta Center
Sun 04:43:08 PM 34.0622 -83.1286 76° East 179 206 7,000  Level Atlanta Center
Sun 04:44:08 PM 34.0722 -83.0708 78° East 179 206 7,000  Level Atlanta Center
Sun 04:45:08 PM 34.0842 -83.0131 76° East 179 206 7,000  Level Atlanta Center
Sun 04:46:08 PM 34.0964 -82.9550 76° East 179 206 7,000  Level Atlanta Center
Sun 04:47:08 PM 34.1083 -82.8947 77° East 179 206 7,000  Level Atlanta Center
Sun 04:48:08 PM 34.1203 -82.8369 76° East 179 206 7,000  Level Atlanta Center
Sun 04:49:08 PM 34.1322 -82.7789 76° East 179 206 7,000  Level Atlanta Center
Sun 04:50:08 PM 34.1419 -82.7186 79° East 179 206 7,000  Level Atlanta Center
Sun 04:51:08 PM 34.1539 -82.6608 76° East 179 206 7,000  Level Atlanta Center
Sun 04:52:08 PM 34.1636 -82.6028 79° East 179 206 7,000 50 Level Atlanta Center
Sun 04:53:08 PM 34.2050 -82.5694 34° Northeast 179 206 7,100 50 Climbing Atlanta Center
Sun 04:54:08 PM 34.2569 -82.5558 12° North 162 186 7,100  Level Atlanta Center
Sun 04:55:08 PM 34.3089 -82.5350 18° North 172 198 7,100  Level Atlanta Center
Sun 04:56:08 PM 34.3608 -82.5214 12° North 185 213 7,100  Level Atlanta Center
Sun 04:57:08 PM 34.4108 -82.5028 17° North 185 213 7,100  Level Atlanta Center
Sun 04:58:08 PM 34.4628 -82.4844 16° North 185 213 7,100  Level Atlanta Center
Sun 04:59:08 PM 34.5189 -82.4681 14° North 185 213 7,100  Level Atlanta Center
Sun 05:00:08 PM 34.5708 -82.4469 19° North 185 213 7,100 -170 Level Atlanta Center
Sun 05:02:00 PM 34.6149 -82.3464 62° Northeast  Level Estimated
Sun 05:09:00 PM 34.7793 -81.9685 62° Northeast  Level Estimated
Sun 05:10:00 PM 34.8027 -81.9144 62° Northeast  Level Estimated
Sun 05:11:00 PM 34.8260 -81.8603 62° Northeast  Level Estimated
Sun 05:11:28 PM 34.8561 -81.8669 62° Northeast 163 188 5,000  Level Atlanta Center
Sun 05:12:00 PM 34.8494 -81.8061 62° Northeast  Level Estimated
Sun 05:12:17 PM 34.8636 -81.8264 77° East 155 178 5,000  Level Atlanta Center
Sun 05:13:00 PM 34.8727 -81.7519 62° Northeast  Level Estimated
Sun 05:13:24 PM 34.8814 -81.7700 69° East 154 177 5,000  Level Atlanta Center
Sun 05:14:00 PM 34.8960 -81.6977 62° Northeast  Level Estimated
Sun 05:14:25 PM 34.9014 -81.7239 62° Northeast 159 183 5,000  Level Atlanta Center
Sun 05:15:00 PM 34.9193 -81.6434 62° Northeast  Level Estimated
Sun 05:15:20 PM 34.9236 -81.6828 57° Northeast 153 176 5,000  Level Atlanta Center
Sun 05:16:00 PM 34.9425 -81.5891 62° Northeast  Level Estimated
Sun 05:16:21 PM 34.9436 -81.6417 59° Northeast 149 171 5,100  Level Atlanta Center
Sun 05:17:22 PM 34.9636 -81.5853 67° East 179 206 5,000 -50 Descending Atlanta Center
Sun 05:18:22 PM 34.9978 -81.5336 51° Northeast 192 221 5,000  Level Atlanta Center
Sun 05:19:35 PM 35.0450 -81.4892 38° Northeast 181 208 5,000  Level Atlanta Center
Sun 05:20:43 PM 35.0814 -81.4372 49° Northeast 179 206 5,000  Level Atlanta Center
Sun 05:21:37 PM 35.1097 -81.3931 52° Northeast 177 204 5,000  Level Atlanta Center
Sun 05:22:38 PM 35.1422 -81.3464 50° Northeast 176 203 5,000  Level Atlanta Center
Sun 05:23:39 PM 35.1661 -81.2975 59° Northeast 172 198 5,000  Level Atlanta Center
Sun 05:24:34 PM 35.1900 -81.2508 58° Northeast 173 199 5,000  Level Atlanta Center
Sun 05:25:28 PM 35.2142 -81.2094 54° Northeast 172 198 5,000  Level Atlanta Center
Sun 05:26:29 PM 35.2400 -81.1575 59° Northeast 172 198 5,000  Level Atlanta Center
Sun 05:27:30 PM 35.2725 -81.1158 46° Northeast 183 211 5,000 -295 Level Atlanta Center
Sun 05:28:31 PM 35.3219 -81.0911 22° Northeast 191 220 4,400 -595 Descending Atlanta Center
Sun 05:29:31 PM 35.3308 -81.0322 80° East 176 203 3,800 -694 Descending Atlanta Center
Sun 05:30:32 PM 35.3419 -80.9733 77° East 169 194 3,000 -639 Descending Atlanta Center
Sun 05:31:33 PM 35.3164 -80.9489 142° Southeast 139 160 2,500 -569 Descending Atlanta Center
Sun 05:32:28 PM 35.2850 -80.9447 174° South 137 158 1,900 -724 Descending Atlanta Center
Sun 05:33:29 PM 35.2431 -80.9414 176° South 140 161 1,100 -787 Descending Atlanta Center
Sun 05:35:00 PM 35.2137 -80.9491 39° Northeast  Level Estimated
Sun 05:42:00 PM 35.2137 -80.9491 39° Northeast  Level Estimated

Login

Don't have an account? Register now (free) for customized features, flight alerts, and more!